createdAt,value
2022-10-22T03:31:44.170Z,97374.16
2022-10-22T03:36:46.440Z,97374.16
2022-10-22T03:41:49.149Z,97364.39
2022-10-22T03:46:50.863Z,97364.39
2022-10-22T03:51:52.590Z,97335.1
2022-10-22T03:56:54.368Z,97335.1
2022-10-22T04:01:56.385Z,97357.25
2022-10-22T04:06:58.136Z,97357.25
2022-10-22T04:12:00.513Z,97357.16
2022-10-22T04:17:02.460Z,97357.16
2022-10-22T04:22:04.451Z,97341.08
2022-10-22T04:27:06.144Z,97341.08
2022-10-22T04:32:07.960Z,97341.29
2022-10-22T04:37:09.741Z,97365.13
2022-10-22T04:42:11.540Z,97365.13
2022-10-22T04:47:13.315Z,97371.38
2022-10-22T04:52:14.978Z,97371.38
2022-10-22T04:57:16.779Z,97357.92
2022-10-22T05:02:18.539Z,97357.92
2022-10-22T05:07:20.273Z,97338.97
2022-10-22T05:12:21.902Z,97338.97
2022-10-22T05:17:23.764Z,97328.86
2022-10-22T05:22:25.564Z,97328.86
2022-10-22T05:27:27.240Z,97341.75
2022-10-22T05:32:29.014Z,97341.75
2022-10-22T05:37:30.700Z,97345.47
2022-10-22T05:42:32.598Z,97345.47
2022-10-22T05:47:34.633Z,97374.25
2022-10-22T05:52:36.703Z,97368.89
2022-10-22T05:57:39.508Z,97368.89
2022-10-22T06:02:42.465Z,97382.75
2022-10-22T06:07:44.786Z,97382.75
2022-10-22T06:12:47.005Z,97403.64
2022-10-22T06:17:48.804Z,97403.64
2022-10-22T06:22:50.578Z,97394.45
2022-10-22T06:27:52.322Z,97394.45
2022-10-22T06:32:54.076Z,97396.83
2022-10-22T06:37:55.882Z,97396.83
2022-10-22T06:42:58.740Z,97377.75
2022-10-22T06:48:00.411Z,97377.75
2022-10-22T06:53:02.218Z,97382.52
2022-10-22T06:58:03.832Z,97382.52
2022-10-22T07:03:05.836Z,97384.3
2022-10-22T07:08:08.016Z,97384.3
2022-10-22T07:13:09.800Z,97389.78
2022-10-22T07:18:11.513Z,97384.53
2022-10-22T07:23:13.253Z,97384.53
2022-10-22T07:28:15.053Z,97389.67
2022-10-22T07:33:16.887Z,97389.67
2022-10-22T07:38:18.677Z,97388.14
2022-10-22T07:43:20.481Z,97388.14
2022-10-22T07:48:22.364Z,97368.25
2022-10-22T07:53:24.108Z,97368.25
2022-10-22T07:58:25.945Z,97363.97
2022-10-22T08:03:28.127Z,97363.97
2022-10-22T08:08:31.791Z,97355.98
2022-10-22T08:13:33.756Z,97355.98
2022-10-22T08:18:35.393Z,97364.83
2022-10-22T08:23:37.035Z,97364.83
2022-10-22T08:28:39.203Z,97374.88
2022-10-22T08:33:41.011Z,97373.77
2022-10-22T08:38:42.816Z,97373.77
2022-10-22T08:48:55.117Z,97397.22
2022-10-22T08:59:17.288Z,97386.94
2022-10-22T09:04:21.520Z,97400
2022-10-22T09:09:25.678Z,97400
2022-10-22T09:14:27.494Z,97375.3
2022-10-22T09:19:33.170Z,97375.3
2022-10-22T09:24:37.242Z,97392.2
2022-10-22T09:29:39.187Z,97392.2
2022-10-22T09:34:43.357Z,97403.32
2022-10-22T09:39:46.433Z,97403.32
2022-10-22T09:44:52.071Z,97397.8
2022-10-22T09:55:02.843Z,97405.52
2022-10-22T10:00:07.667Z,97397.84
2022-10-22T10:10:19.124Z,97382.95
2022-10-22T10:15:24.609Z,97382.95
2022-10-22T10:20:31.387Z,97370.66
2022-10-22T10:35:51.974Z,97361.3
2022-10-22T10:40:56.750Z,97359.43
2022-10-22T10:46:01.826Z,97359.43
2022-10-22T10:51:06.943Z,97385
2022-10-22T11:01:19.695Z,97400.53
2022-10-22T11:06:26.203Z,97395.14
2022-10-22T11:11:32.610Z,97395.14
2022-10-22T11:16:36.629Z,97395.27
2022-10-22T11:21:41.518Z,97395.27
2022-10-22T11:26:46.591Z,97394.09
2022-10-22T11:31:48.989Z,97394.09
2022-10-22T11:36:52.467Z,97389.77
2022-10-22T11:41:54.935Z,97389.77
2022-10-22T11:46:58.298Z,97384.23
2022-10-22T11:57:17.999Z,97370.23
2022-10-22T12:07:31.881Z,97370.37
2022-10-22T12:12:38.867Z,97375.27
2022-10-22T12:17:42.223Z,97375.27
2022-10-22T12:22:44.795Z,97351.8
2022-10-22T12:27:49.474Z,97351.8
2022-10-22T12:32:52.036Z,97345.55
2022-10-22T12:37:55.091Z,97345.55
2022-10-22T12:42:58.303Z,97342.45
2022-10-22T12:48:01.787Z,97342.45
2022-10-22T12:53:04.820Z,97361.33
2022-10-22T12:58:06.863Z,97361.33
2022-10-22T13:08:17.710Z,97377.02
2022-10-22T13:18:32.623Z,97373.82
2022-10-22T13:23:34.561Z,97373.82
2022-10-22T13:28:36.300Z,97396.95
2022-10-22T13:33:40.118Z,97396.95
2022-10-22T13:38:42.500Z,97378.91
2022-10-22T13:43:44.239Z,97378.91
2022-10-22T13:48:46.868Z,97379.66
2022-10-22T13:53:49.723Z,97379.66
2022-10-22T13:58:51.692Z,97373.96
2022-10-22T14:03:54.894Z,97373.96
2022-10-22T14:08:57.915Z,97392.88
2022-10-22T14:13:59.915Z,97392.88
2022-10-22T14:19:02.468Z,97400.53
2022-10-22T14:24:12.877Z,97385.2
2022-10-22T14:29:15.306Z,97385.2
2022-10-22T14:34:17.032Z,97374.66
2022-10-22T14:39:18.837Z,97374.66
2022-10-22T14:44:20.444Z,97396
2022-10-22T14:49:22.540Z,97396
2022-10-22T14:54:24.379Z,97408.38
2022-10-22T14:59:26.156Z,97408.38
2022-10-22T15:04:28.158Z,97398.49
2022-10-22T15:09:29.874Z,97398.49
2022-10-22T15:14:32.143Z,97388.55
2022-10-22T15:19:33.918Z,97388.55
2022-10-22T15:24:35.724Z,97402.03
2022-10-22T15:29:37.801Z,97402.03
2022-10-22T15:34:40.362Z,97400.94
2022-10-22T15:39:42.090Z,97405.27
2022-10-22T15:44:44.441Z,97405.27
2022-10-22T15:49:46.282Z,97403.41
2022-10-22T15:54:48.611Z,97403.41
2022-10-22T15:59:50.454Z,97411.66
2022-10-22T16:04:52.374Z,97411.66
2022-10-22T16:09:55.560Z,97419.09
2022-10-22T16:14:57.433Z,97419.09
2022-10-22T16:19:59.428Z,97442.8
2022-10-22T16:25:01.429Z,97442.8
2022-10-22T16:30:03.679Z,97463.88
2022-10-22T16:35:06.371Z,97463.88
2022-10-22T16:40:09.620Z,97484.88
2022-10-22T16:45:12.066Z,97484.88
2022-10-22T16:50:14.584Z,97494.05
2022-10-22T16:55:16.431Z,97502.94
2022-10-22T17:00:19.471Z,97502.94
2022-10-22T17:05:23.129Z,97517.68
2022-10-22T17:10:25.498Z,97517.68
2022-10-22T17:15:27.967Z,97503.96
2022-10-22T17:20:30.241Z,97503.96
2022-10-22T17:25:36.546Z,97516.94
2022-10-22T17:30:39.294Z,97516.94
2022-10-22T17:35:42.153Z,97513.78
2022-10-22T17:40:45.082Z,97513.78
2022-10-22T17:45:48.064Z,97531.52
2022-10-22T17:50:59.115Z,97531.52
2022-10-22T17:56:02.659Z,97510.37
2022-10-22T18:01:05.833Z,97510.37
2022-10-22T18:06:09.001Z,97526.58
2022-10-22T18:11:12.908Z,97541.48
2022-10-22T18:16:15.743Z,97541.48
2022-10-22T18:21:18.668Z,97556.16
2022-10-22T18:31:29.118Z,97552.11
2022-10-22T18:36:31.288Z,97552.11
2022-10-22T18:41:35.950Z,97560.38
2022-10-22T18:46:40.309Z,97560.38
2022-10-22T18:51:44.325Z,97573.86
2022-10-22T18:56:47.138Z,97573.86
2022-10-22T19:01:50.030Z,97606.76
2022-10-22T19:06:52.543Z,97606.76
2022-10-22T19:11:56.361Z,97596.16
2022-10-22T19:16:58.502Z,97597.78
2022-10-22T19:22:00.965Z,97597.78
2022-10-22T19:27:03.396Z,97609.5
2022-10-22T19:37:10.195Z,97602.23
2022-10-22T19:42:12.790Z,97602.23
2022-10-22T19:47:14.785Z,97614.3
2022-10-22T19:52:17.172Z,97614.3
2022-10-22T19:57:20.512Z,97634.08
2022-10-22T20:02:24.091Z,97634.08
2022-10-22T20:07:26.278Z,97645.2
2022-10-22T20:12:28.469Z,97645.2
2022-10-22T20:17:30.789Z,97657.19
2022-10-22T20:22:32.890Z,97657.19
2022-10-22T20:27:35.230Z,97656.76
2022-10-22T20:32:39.190Z,97673.62
2022-10-22T20:37:42.030Z,97673.62
2022-10-22T20:42:45.152Z,97685.98
2022-10-22T20:52:53.135Z,97685.98
2022-10-22T20:57:54.951Z,97685.98
2022-10-22T21:02:57.375Z,97685.98
2022-10-22T21:07:59.308Z,97685.98
2022-10-22T21:13:01.267Z,97685.98
2022-10-22T21:18:03.599Z,97685.98
2022-10-22T21:23:05.389Z,97685.98
2022-10-22T21:28:07.039Z,97685.98
2022-10-22T21:33:08.740Z,97685.98
2022-10-22T21:38:10.574Z,97685.98
